Pagrindinis puslapis
METAR-TAF:

METAR-TAF

Oro uostai :

Kampo Grandė, Pietų Mato Grosas, Brazilija

platuma: 20-28S, ilguma: 054-40W, Aukštis: 567 m

Dabartinis oras

Ataskaita buvo paskelbta 33 minutes, ne 14:00 UTC
Vėjas 6 kt iš Pietų/Pietryčių, svyruoja nuo Rytų ir Pietvakarių
Temperatūra 27°C
Drėgmė 45%
Slėgis 1015 hPa
Matomumas 10 km arba daugiau
nėra debesų žemiau 1500 m ir nėra kamuolinių lietaus debesų

METAR: SBCG 071400Z 15006KT 100V220 CAVOK 27/14 Q1015

Laikas: 10:33 (14:33 UTC)

Prognozė

Ataskaita buvo paskelbta 4 valandos ir 48 minutes, ne 09:45 UTC
Prognozė galioja nuo 07 metu 12 UTC su 08 metu 12 UTC
Vėjas 8 kt iš Rytų/Pietryčių
Matomumas 10 km arba daugiau
Išsisklaidę debesys ne aukštis 4000 ft
Tapsmas
nuo 07 metu 12 UTC su 07 metu 14 UTC
Mažai debesys ne aukštis 4500 ft

TAF: SBCG 070945Z 0712/0812 12008KT 9999 SCT040 TX31/0718Z TN19/0808Z BECMG 0712/0714 FEW045 RMK PEB

Orai ataskaitas ir orų prognozės (METAR, TAF).

turimą stotys yra geltonos ir raudonos taškus žemėlapyje.

Perkelti pele per norėdami pamatyti stoties vardą.

Tada spustelėkite, norėdami matyti oro stebėjimo ir prognozės.

Norėdami pakeisti žemėlapį: spustelėkite ant žalios mygtukų su juodo kryžiaus žemyn,; žalią mygtuką su brūkšneliu, jei norite nutolinti; arba žalių rodyklių gretimoms žemėlapius.


METAR-TAF: